sensor_id;sensor_type;location;lat;lon;timestamp;P1;durP1;ratioP1;P2;durP2;ratioP2
54271;SDS011;40184;53.362;5.216;2023-03-24T00:01:04;33.25;;;12.55;;
54271;SDS011;40184;53.362;5.216;2023-03-24T00:03:31;39.47;;;12.65;;
54271;SDS011;40184;53.362;5.216;2023-03-24T00:05:57;35.20;;;11.90;;
54271;SDS011;40184;53.362;5.216;2023-03-24T00:08:26;33.47;;;12.23;;
54271;SDS011;40184;53.362;5.216;2023-03-24T00:10:57;44.53;;;11.95;;
54271;SDS011;40184;53.362;5.216;2023-03-24T00:13:24;36.47;;;12.77;;
54271;SDS011;40184;53.362;5.216;2023-03-24T00:15:50;37.38;;;13.90;;
54271;SDS011;40184;53.362;5.216;2023-03-24T00:18:15;41.42;;;13.98;;
54271;SDS011;40184;53.362;5.216;2023-03-24T00:20:43;33.88;;;13.32;;
54271;SDS011;40184;53.362;5.216;2023-03-24T00:23:10;45.58;;;14.95;;
54271;SDS011;40184;53.362;5.216;2023-03-24T00:25:36;35.03;;;12.68;;
54271;SDS011;40184;53.362;5.216;2023-03-24T00:28:04;37.58;;;13.95;;
54271;SDS011;40184;53.362;5.216;2023-03-24T00:30:31;35.28;;;13.93;;
54271;SDS011;40184;53.362;5.216;2023-03-24T00:32:59;37.25;;;14.77;;
54271;SDS011;40184;53.362;5.216;2023-03-24T00:35:26;30.77;;;14.23;;
54271;SDS011;40184;53.362;5.216;2023-03-24T00:37:52;37.53;;;15.70;;
54271;SDS011;40184;53.362;5.216;2023-03-24T00:40:19;41.28;;;15.00;;
54271;SDS011;40184;53.362;5.216;2023-03-24T00:42:46;33.20;;;13.98;;
54271;SDS011;40184;53.362;5.216;2023-03-24T00:45:17;38.30;;;14.32;;
54271;SDS011;40184;53.362;5.216;2023-03-24T00:47:46;31.50;;;14.23;;
54271;SDS011;40184;53.362;5.216;2023-03-24T00:50:15;41.45;;;14.05;;
54271;SDS011;40184;53.362;5.216;2023-03-24T00:52:44;44.15;;;13.52;;
54271;SDS011;40184;53.362;5.216;2023-03-24T00:55:12;34.65;;;12.05;;
54271;SDS011;40184;53.362;5.216;2023-03-24T00:57:40;48.92;;;13.18;;
54271;SDS011;40184;53.362;5.216;2023-03-24T01:00:14;48.47;;;14.52;;
54271;SDS011;40184;53.362;5.216;2023-03-24T01:02:46;42.35;;;14.32;;
54271;SDS011;40184;53.362;5.216;2023-03-24T01:05:13;53.55;;;14.68;;
54271;SDS011;40184;53.362;5.216;2023-03-24T01:07:41;44.80;;;13.93;;
54271;SDS011;40184;53.362;5.216;2023-03-24T01:10:07;40.70;;;12.80;;
54271;SDS011;40184;53.362;5.216;2023-03-24T01:12:37;44.95;;;13.77;;
54271;SDS011;40184;53.362;5.216;2023-03-24T01:15:05;39.35;;;12.98;;
54271;SDS011;40184;53.362;5.216;2023-03-24T01:17:33;38.70;;;11.82;;
54271;SDS011;40184;53.362;5.216;2023-03-24T01:19:58;32.15;;;11.43;;
54271;SDS011;40184;53.362;5.216;2023-03-24T01:22:28;30.20;;;10.75;;
54271;SDS011;40184;53.362;5.216;2023-03-24T01:24:54;22.67;;;8.95;;
54271;SDS011;40184;53.362;5.216;2023-03-24T01:27:20;23.60;;;8.68;;
54271;SDS011;40184;53.362;5.216;2023-03-24T01:29:47;27.38;;;9.95;;
54271;SDS011;40184;53.362;5.216;2023-03-24T01:32:12;18.25;;;8.82;;
54271;SDS011;40184;53.362;5.216;2023-03-24T01:34:38;27.75;;;6.72;;
54271;SDS011;40184;53.362;5.216;2023-03-24T01:37:04;24.00;;;7.07;;
54271;SDS011;40184;53.362;5.216;2023-03-24T01:39:30;18.70;;;5.47;;
54271;SDS011;40184;53.362;5.216;2023-03-24T01:41:55;26.20;;;6.03;;
54271;SDS011;40184;53.362;5.216;2023-03-24T01:44:26;22.52;;;5.95;;
54271;SDS011;40184;53.362;5.216;2023-03-24T01:46:57;22.33;;;6.32;;
54271;SDS011;40184;53.362;5.216;2023-03-24T01:49:24;27.63;;;6.80;;
54271;SDS011;40184;53.362;5.216;2023-03-24T01:51:58;26.00;;;5.63;;
54271;SDS011;40184;53.362;5.216;2023-03-24T01:54:34;18.88;;;5.18;;
54271;SDS011;40184;53.362;5.216;2023-03-24T01:57:16;20.95;;;5.75;;
54271;SDS011;40184;53.362;5.216;2023-03-24T01:59:50;30.38;;;6.57;;
54271;SDS011;40184;53.362;5.216;2023-03-24T02:02:19;22.85;;;5.93;;
54271;SDS011;40184;53.362;5.216;2023-03-24T02:04:47;22.38;;;6.32;;
54271;SDS011;40184;53.362;5.216;2023-03-24T02:08:00;26.95;;;6.95;;
54271;SDS011;40184;53.362;5.216;2023-03-24T02:10:18;24.73;;;6.65;;
54271;SDS011;40184;53.362;5.216;2023-03-24T02:12:45;20.67;;;6.35;;
54271;SDS011;40184;53.362;5.216;2023-03-24T02:15:11;31.48;;;6.32;;
54271;SDS011;40184;53.362;5.216;2023-03-24T02:23:13;25.95;;;7.82;;
54271;SDS011;40184;53.362;5.216;2023-03-24T02:26:05;28.85;;;6.75;;
54271;SDS011;40184;53.362;5.216;2023-03-24T02:31:32;25.02;;;6.20;;
54271;SDS011;40184;53.362;5.216;2023-03-24T02:37:20;25.77;;;5.95;;
54271;SDS011;40184;53.362;5.216;2023-03-24T02:43:10;20.38;;;4.10;;
54271;SDS011;40184;53.362;5.216;2023-03-24T02:45:58;24.35;;;4.47;;
54271;SDS011;40184;53.362;5.216;2023-03-24T02:51:26;24.75;;;4.90;;
54271;SDS011;40184;53.362;5.216;2023-03-24T02:54:07;35.22;;;6.22;;
54271;SDS011;40184;53.362;5.216;2023-03-24T02:59:31;26.70;;;6.18;;
54271;SDS011;40184;53.362;5.216;2023-03-24T03:02:13;28.48;;;5.53;;
54271;SDS011;40184;53.362;5.216;2023-03-24T03:04:49;36.92;;;6.63;;
54271;SDS011;40184;53.362;5.216;2023-03-24T03:07:23;33.08;;;7.28;;
54271;SDS011;40184;53.362;5.216;2023-03-24T03:09:54;34.78;;;7.07;;
54271;SDS011;40184;53.362;5.216;2023-03-24T03:12:29;33.40;;;6.10;;
54271;SDS011;40184;53.362;5.216;2023-03-24T03:15:08;31.38;;;7.22;;
54271;SDS011;40184;53.362;5.216;2023-03-24T03:17:41;29.85;;;6.85;;
54271;SDS011;40184;53.362;5.216;2023-03-24T03:20:15;37.53;;;6.45;;
54271;SDS011;40184;53.362;5.216;2023-03-24T03:22:49;30.67;;;6.40;;
54271;SDS011;40184;53.362;5.216;2023-03-24T03:25:20;24.20;;;5.18;;
54271;SDS011;40184;53.362;5.216;2023-03-24T03:27:50;26.70;;;4.60;;
54271;SDS011;40184;53.362;5.216;2023-03-24T03:30:25;23.25;;;4.65;;
54271;SDS011;40184;53.362;5.216;2023-03-24T03:35:37;28.80;;;5.07;;
54271;SDS011;40184;53.362;5.216;2023-03-24T03:38:18;31.50;;;6.93;;
54271;SDS011;40184;53.362;5.216;2023-03-24T03:43:15;28.35;;;5.30;;
54271;SDS011;40184;53.362;5.216;2023-03-24T03:45:41;27.00;;;5.22;;
54271;SDS011;40184;53.362;5.216;2023-03-24T03:48:07;30.55;;;5.97;;
54271;SDS011;40184;53.362;5.216;2023-03-24T03:50:33;32.78;;;6.78;;
54271;SDS011;40184;53.362;5.216;2023-03-24T03:52:59;30.83;;;6.60;;
54271;SDS011;40184;53.362;5.216;2023-03-24T03:55:25;26.70;;;5.35;;
54271;SDS011;40184;53.362;5.216;2023-03-24T03:57:52;26.63;;;5.07;;
54271;SDS011;40184;53.362;5.216;2023-03-24T04:00:19;20.10;;;4.70;;
54271;SDS011;40184;53.362;5.216;2023-03-24T04:02:50;26.05;;;4.75;;
54271;SDS011;40184;53.362;5.216;2023-03-24T04:05:35;26.88;;;5.43;;
54271;SDS011;40184;53.362;5.216;2023-03-24T04:19:31;44.17;;;6.97;;
54271;SDS011;40184;53.362;5.216;2023-03-24T04:33:16;45.75;;;7.07;;
54271;SDS011;40184;53.362;5.216;2023-03-24T04:38:51;35.40;;;6.97;;
54271;SDS011;40184;53.362;5.216;2023-03-24T04:41:19;36.05;;;7.53;;
54271;SDS011;40184;53.362;5.216;2023-03-24T04:43:50;29.35;;;7.22;;
54271;SDS011;40184;53.362;5.216;2023-03-24T04:46:17;23.85;;;4.88;;
54271;SDS011;40184;53.362;5.216;2023-03-24T04:48:46;32.30;;;8.13;;
54271;SDS011;40184;53.362;5.216;2023-03-24T04:51:15;28.20;;;4.93;;
54271;SDS011;40184;53.362;5.216;2023-03-24T04:53:45;29.55;;;6.00;;
54271;SDS011;40184;53.362;5.216;2023-03-24T04:58:59;37.60;;;7.15;;
54271;SDS011;40184;53.362;5.216;2023-03-24T05:01:25;33.03;;;5.75;;
54271;SDS011;40184;53.362;5.216;2023-03-24T05:03:54;32.13;;;6.75;;
54271;SDS011;40184;53.362;5.216;2023-03-24T05:06:21;36.80;;;7.05;;
54271;SDS011;40184;53.362;5.216;2023-03-24T05:08:47;38.15;;;6.53;;
54271;SDS011;40184;53.362;5.216;2023-03-24T05:11:13;43.92;;;7.10;;
54271;SDS011;40184;53.362;5.216;2023-03-24T05:13:38;27.90;;;5.63;;
54271;SDS011;40184;53.362;5.216;2023-03-24T05:16:04;34.78;;;6.28;;
54271;SDS011;40184;53.362;5.216;2023-03-24T05:18:30;22.80;;;5.35;;
54271;SDS011;40184;53.362;5.216;2023-03-24T05:20:56;30.52;;;7.20;;
54271;SDS011;40184;53.362;5.216;2023-03-24T05:23:22;27.27;;;5.93;;
54271;SDS011;40184;53.362;5.216;2023-03-24T05:25:47;40.63;;;7.65;;
54271;SDS011;40184;53.362;5.216;2023-03-24T05:28:13;35.88;;;5.93;;
54271;SDS011;40184;53.362;5.216;2023-03-24T05:30:39;30.75;;;6.13;;
54271;SDS011;40184;53.362;5.216;2023-03-24T05:33:05;24.73;;;4.97;;
54271;SDS011;40184;53.362;5.216;2023-03-24T05:35:31;39.03;;;6.72;;
54271;SDS011;40184;53.362;5.216;2023-03-24T05:37:56;27.13;;;5.60;;
54271;SDS011;40184;53.362;5.216;2023-03-24T05:40:22;25.58;;;6.15;;
54271;SDS011;40184;53.362;5.216;2023-03-24T05:42:49;22.83;;;5.03;;
54271;SDS011;40184;53.362;5.216;2023-03-24T05:45:15;29.80;;;5.95;;
54271;SDS011;40184;53.362;5.216;2023-03-24T05:47:41;31.73;;;6.32;;
54271;SDS011;40184;53.362;5.216;2023-03-24T05:50:07;31.52;;;6.20;;
54271;SDS011;40184;53.362;5.216;2023-03-24T05:52:33;39.45;;;6.68;;
54271;SDS011;40184;53.362;5.216;2023-03-24T05:55:00;27.70;;;6.43;;
54271;SDS011;40184;53.362;5.216;2023-03-24T05:57:26;29.85;;;5.80;;
54271;SDS011;40184;53.362;5.216;2023-03-24T05:59:54;35.88;;;6.28;;
54271;SDS011;40184;53.362;5.216;2023-03-24T06:02:21;25.33;;;5.68;;
54271;SDS011;40184;53.362;5.216;2023-03-24T06:04:47;30.52;;;7.00;;
54271;SDS011;40184;53.362;5.216;2023-03-24T06:07:13;33.97;;;5.43;;
54271;SDS011;40184;53.362;5.216;2023-03-24T06:09:40;33.30;;;5.78;;
54271;SDS011;40184;53.362;5.216;2023-03-24T06:12:07;35.33;;;6.22;;
54271;SDS011;40184;53.362;5.216;2023-03-24T06:14:33;39.90;;;6.53;;
54271;SDS011;40184;53.362;5.216;2023-03-24T06:16:59;37.22;;;7.75;;
54271;SDS011;40184;53.362;5.216;2023-03-24T06:19:25;31.08;;;5.88;;
54271;SDS011;40184;53.362;5.216;2023-03-24T06:21:51;30.95;;;5.65;;
54271;SDS011;40184;53.362;5.216;2023-03-24T06:24:18;28.80;;;5.68;;
54271;SDS011;40184;53.362;5.216;2023-03-24T06:26:44;33.53;;;7.63;;
54271;SDS011;40184;53.362;5.216;2023-03-24T06:29:13;36.50;;;6.22;;
54271;SDS011;40184;53.362;5.216;2023-03-24T06:31:42;34.78;;;6.75;;
54271;SDS011;40184;53.362;5.216;2023-03-24T06:34:08;42.40;;;7.65;;
54271;SDS011;40184;53.362;5.216;2023-03-24T06:36:34;32.25;;;5.40;;
54271;SDS011;40184;53.362;5.216;2023-03-24T06:39:00;34.22;;;5.78;;
54271;SDS011;40184;53.362;5.216;2023-03-24T06:41:26;37.85;;;5.63;;
54271;SDS011;40184;53.362;5.216;2023-03-24T06:43:52;43.40;;;7.07;;
54271;SDS011;40184;53.362;5.216;2023-03-24T06:46:18;34.45;;;7.05;;
54271;SDS011;40184;53.362;5.216;2023-03-24T06:48:43;28.92;;;7.35;;
54271;SDS011;40184;53.362;5.216;2023-03-24T06:51:10;36.33;;;7.57;;
54271;SDS011;40184;53.362;5.216;2023-03-24T06:53:36;30.10;;;6.97;;
54271;SDS011;40184;53.362;5.216;2023-03-24T06:56:05;31.55;;;7.25;;
54271;SDS011;40184;53.362;5.216;2023-03-24T06:58:32;42.78;;;7.97;;
54271;SDS011;40184;53.362;5.216;2023-03-24T07:00:59;35.08;;;7.93;;
54271;SDS011;40184;53.362;5.216;2023-03-24T07:03:26;32.70;;;6.18;;
54271;SDS011;40184;53.362;5.216;2023-03-24T07:05:51;39.55;;;8.13;;
54271;SDS011;40184;53.362;5.216;2023-03-24T07:08:17;33.28;;;7.68;;
54271;SDS011;40184;53.362;5.216;2023-03-24T07:10:43;46.42;;;9.68;;
54271;SDS011;40184;53.362;5.216;2023-03-24T07:13:09;37.40;;;7.68;;
54271;SDS011;40184;53.362;5.216;2023-03-24T07:15:35;41.85;;;8.30;;
54271;SDS011;40184;53.362;5.216;2023-03-24T07:18:01;54.63;;;8.63;;
54271;SDS011;40184;53.362;5.216;2023-03-24T07:20:27;33.17;;;6.85;;
54271;SDS011;40184;53.362;5.216;2023-03-24T07:22:56;51.97;;;8.80;;
54271;SDS011;40184;53.362;5.216;2023-03-24T07:25:22;40.50;;;8.85;;
54271;SDS011;40184;53.362;5.216;2023-03-24T07:27:48;38.22;;;6.05;;
54271;SDS011;40184;53.362;5.216;2023-03-24T07:30:17;43.33;;;9.13;;
54271;SDS011;40184;53.362;5.216;2023-03-24T07:32:42;36.10;;;7.28;;
54271;SDS011;40184;53.362;5.216;2023-03-24T07:35:09;36.95;;;7.22;;
54271;SDS011;40184;53.362;5.216;2023-03-24T07:37:36;57.63;;;10.23;;
54271;SDS011;40184;53.362;5.216;2023-03-24T07:40:06;48.75;;;8.30;;
54271;SDS011;40184;53.362;5.216;2023-03-24T07:42:36;40.25;;;7.63;;
54271;SDS011;40184;53.362;5.216;2023-03-24T07:45:07;29.42;;;7.35;;
54271;SDS011;40184;53.362;5.216;2023-03-24T07:47:37;38.15;;;8.07;;
54271;SDS011;40184;53.362;5.216;2023-03-24T07:50:04;39.78;;;7.82;;
54271;SDS011;40184;53.362;5.216;2023-03-24T07:52:35;42.67;;;8.55;;
54271;SDS011;40184;53.362;5.216;2023-03-24T07:55:06;40.15;;;7.88;;
54271;SDS011;40184;53.362;5.216;2023-03-24T07:57:35;42.22;;;8.38;;
54271;SDS011;40184;53.362;5.216;2023-03-24T08:00:06;38.88;;;7.68;;
54271;SDS011;40184;53.362;5.216;2023-03-24T08:02:40;53.50;;;10.90;;
54271;SDS011;40184;53.362;5.216;2023-03-24T08:05:06;39.40;;;7.18;;
54271;SDS011;40184;53.362;5.216;2023-03-24T08:07:34;36.17;;;6.53;;
54271;SDS011;40184;53.362;5.216;2023-03-24T08:10:00;37.78;;;7.25;;
54271;SDS011;40184;53.362;5.216;2023-03-24T08:12:26;36.03;;;7.20;;
54271;SDS011;40184;53.362;5.216;2023-03-24T08:14:52;35.10;;;7.95;;
54271;SDS011;40184;53.362;5.216;2023-03-24T08:17:17;34.10;;;7.10;;
54271;SDS011;40184;53.362;5.216;2023-03-24T08:19:43;37.67;;;8.07;;
54271;SDS011;40184;53.362;5.216;2023-03-24T08:22:09;40.95;;;8.63;;
54271;SDS011;40184;53.362;5.216;2023-03-24T08:24:35;35.42;;;7.13;;
54271;SDS011;40184;53.362;5.216;2023-03-24T08:27:01;35.45;;;6.55;;
54271;SDS011;40184;53.362;5.216;2023-03-24T08:29:30;29.10;;;7.15;;
54271;SDS011;40184;53.362;5.216;2023-03-24T08:31:58;34.38;;;7.30;;
54271;SDS011;40184;53.362;5.216;2023-03-24T08:34:25;36.58;;;6.68;;
54271;SDS011;40184;53.362;5.216;2023-03-24T08:36:51;27.88;;;6.70;;
54271;SDS011;40184;53.362;5.216;2023-03-24T08:39:17;29.40;;;6.28;;
54271;SDS011;40184;53.362;5.216;2023-03-24T08:41:44;29.90;;;5.78;;
54271;SDS011;40184;53.362;5.216;2023-03-24T08:44:10;30.35;;;6.32;;
54271;SDS011;40184;53.362;5.216;2023-03-24T08:46:37;41.63;;;8.50;;
54271;SDS011;40184;53.362;5.216;2023-03-24T08:49:03;36.47;;;7.18;;
54271;SDS011;40184;53.362;5.216;2023-03-24T08:51:29;30.58;;;6.65;;
54271;SDS011;40184;53.362;5.216;2023-03-24T08:53:56;40.83;;;7.15;;
54271;SDS011;40184;53.362;5.216;2023-03-24T08:56:22;37.53;;;10.20;;
54271;SDS011;40184;53.362;5.216;2023-03-24T08:58:48;26.13;;;5.60;;
54271;SDS011;40184;53.362;5.216;2023-03-24T09:01:16;30.13;;;6.70;;
54271;SDS011;40184;53.362;5.216;2023-03-24T09:03:42;32.58;;;6.95;;
54271;SDS011;40184;53.362;5.216;2023-03-24T09:06:08;41.00;;;6.80;;
54271;SDS011;40184;53.362;5.216;2023-03-24T09:08:35;31.20;;;6.97;;
54271;SDS011;40184;53.362;5.216;2023-03-24T09:11:01;25.13;;;6.00;;
54271;SDS011;40184;53.362;5.216;2023-03-24T09:13:27;28.10;;;5.97;;
54271;SDS011;40184;53.362;5.216;2023-03-24T09:15:53;28.10;;;8.32;;
54271;SDS011;40184;53.362;5.216;2023-03-24T09:18:23;43.78;;;8.15;;
54271;SDS011;40184;53.362;5.216;2023-03-24T09:20:49;38.97;;;7.53;;
54271;SDS011;40184;53.362;5.216;2023-03-24T09:23:16;30.58;;;6.15;;
54271;SDS011;40184;53.362;5.216;2023-03-24T09:25:43;49.20;;;8.85;;
54271;SDS011;40184;53.362;5.216;2023-03-24T09:28:09;37.70;;;10.18;;
54271;SDS011;40184;53.362;5.216;2023-03-24T09:30:35;43.13;;;8.63;;
54271;SDS011;40184;53.362;5.216;2023-03-24T09:33:01;38.95;;;7.97;;
54271;SDS011;40184;53.362;5.216;2023-03-24T09:35:27;41.17;;;9.50;;
54271;SDS011;40184;53.362;5.216;2023-03-24T09:37:53;47.65;;;11.05;;
54271;SDS011;40184;53.362;5.216;2023-03-24T09:40:34;38.80;;;9.43;;
54271;SDS011;40184;53.362;5.216;2023-03-24T09:43:03;42.00;;;9.83;;
54271;SDS011;40184;53.362;5.216;2023-03-24T09:45:50;41.60;;;9.48;;
54271;SDS011;40184;53.362;5.216;2023-03-24T09:51:02;43.97;;;9.48;;
54271;SDS011;40184;53.362;5.216;2023-03-24T09:53:34;41.80;;;9.07;;
54271;SDS011;40184;53.362;5.216;2023-03-24T09:56:03;47.20;;;10.23;;
54271;SDS011;40184;53.362;5.216;2023-03-24T09:58:38;48.55;;;9.90;;
54271;SDS011;40184;53.362;5.216;2023-03-24T10:01:16;51.13;;;10.75;;
54271;SDS011;40184;53.362;5.216;2023-03-24T10:03:43;42.88;;;7.90;;
54271;SDS011;40184;53.362;5.216;2023-03-24T10:06:12;43.97;;;9.50;;
54271;SDS011;40184;53.362;5.216;2023-03-24T10:08:48;30.30;;;7.93;;
54271;SDS011;40184;53.362;5.216;2023-03-24T10:14:29;51.33;;;10.45;;
54271;SDS011;40184;53.362;5.216;2023-03-24T10:22:38;44.25;;;8.18;;
54271;SDS011;40184;53.362;5.216;2023-03-24T10:25:22;46.72;;;9.43;;
54271;SDS011;40184;53.362;5.216;2023-03-24T10:27:59;43.05;;;8.65;;
54271;SDS011;40184;53.362;5.216;2023-03-24T10:30:46;45.88;;;9.48;;
54271;SDS011;40184;53.362;5.216;2023-03-24T10:33:14;39.78;;;9.63;;
54271;SDS011;40184;53.362;5.216;2023-03-24T10:35:42;42.03;;;8.20;;
54271;SDS011;40184;53.362;5.216;2023-03-24T10:38:19;45.65;;;7.90;;
54271;SDS011;40184;53.362;5.216;2023-03-24T10:40:46;36.33;;;8.77;;
54271;SDS011;40184;53.362;5.216;2023-03-24T10:43:13;34.22;;;8.70;;
54271;SDS011;40184;53.362;5.216;2023-03-24T10:45:42;44.60;;;8.80;;
54271;SDS011;40184;53.362;5.216;2023-03-24T10:48:14;43.92;;;8.75;;
54271;SDS011;40184;53.362;5.216;2023-03-24T10:51:03;36.35;;;8.43;;
54271;SDS011;40184;53.362;5.216;2023-03-24T10:53:30;44.20;;;8.07;;
54271;SDS011;40184;53.362;5.216;2023-03-24T10:55:57;49.45;;;8.50;;
54271;SDS011;40184;53.362;5.216;2023-03-24T10:58:39;54.90;;;9.75;;
54271;SDS011;40184;53.362;5.216;2023-03-24T11:01:20;47.20;;;9.95;;
54271;SDS011;40184;53.362;5.216;2023-03-24T11:03:49;46.28;;;9.18;;
54271;SDS011;40184;53.362;5.216;2023-03-24T11:06:16;45.75;;;9.20;;
54271;SDS011;40184;53.362;5.216;2023-03-24T11:08:44;50.05;;;9.88;;
54271;SDS011;40184;53.362;5.216;2023-03-24T11:11:14;32.85;;;8.73;;
54271;SDS011;40184;53.362;5.216;2023-03-24T11:13:54;40.10;;;8.80;;
54271;SDS011;40184;53.362;5.216;2023-03-24T11:16:26;42.10;;;7.72;;
54271;SDS011;40184;53.362;5.216;2023-03-24T11:18:59;41.10;;;8.60;;
54271;SDS011;40184;53.362;5.216;2023-03-24T11:21:27;36.50;;;7.97;;
54271;SDS011;40184;53.362;5.216;2023-03-24T11:23:56;46.50;;;9.82;;
54271;SDS011;40184;53.362;5.216;2023-03-24T11:26:30;44.65;;;9.00;;
54271;SDS011;40184;53.362;5.216;2023-03-24T11:29:02;46.08;;;9.43;;
54271;SDS011;40184;53.362;5.216;2023-03-24T11:31:34;54.80;;;9.35;;
54271;SDS011;40184;53.362;5.216;2023-03-24T11:34:13;44.50;;;8.73;;
54271;SDS011;40184;53.362;5.216;2023-03-24T11:39:30;35.17;;;7.30;;
54271;SDS011;40184;53.362;5.216;2023-03-24T11:44:49;29.65;;;6.88;;
54271;SDS011;40184;53.362;5.216;2023-03-24T11:47:20;43.35;;;8.73;;
54271;SDS011;40184;53.362;5.216;2023-03-24T11:55:35;42.15;;;8.38;;
54271;SDS011;40184;53.362;5.216;2023-03-24T12:01:03;32.38;;;7.78;;
54271;SDS011;40184;53.362;5.216;2023-03-24T12:03:51;31.02;;;7.32;;
54271;SDS011;40184;53.362;5.216;2023-03-24T12:06:41;35.83;;;7.40;;
54271;SDS011;40184;53.362;5.216;2023-03-24T12:12:21;44.88;;;7.38;;
54271;SDS011;40184;53.362;5.216;2023-03-24T12:17:39;44.35;;;7.80;;
54271;SDS011;40184;53.362;5.216;2023-03-24T12:20:22;35.42;;;8.95;;
54271;SDS011;40184;53.362;5.216;2023-03-24T12:39:17;31.45;;;7.82;;
54271;SDS011;40184;53.362;5.216;2023-03-24T12:47:27;36.38;;;9.07;;
54271;SDS011;40184;53.362;5.216;2023-03-24T12:55:38;36.30;;;8.50;;
54271;SDS011;40184;53.362;5.216;2023-03-24T13:00:57;33.15;;;8.13;;
54271;SDS011;40184;53.362;5.216;2023-03-24T13:03:39;38.55;;;8.20;;
54271;SDS011;40184;53.362;5.216;2023-03-24T13:06:21;33.72;;;7.00;;
54271;SDS011;40184;53.362;5.216;2023-03-24T13:14:48;44.88;;;8.25;;
54271;SDS011;40184;53.362;5.216;2023-03-24T13:20:24;30.13;;;7.05;;
54271;SDS011;40184;53.362;5.216;2023-03-24T13:23:26;32.72;;;7.25;;
54271;SDS011;40184;53.362;5.216;2023-03-24T13:31:25;37.20;;;7.28;;
54271;SDS011;40184;53.362;5.216;2023-03-24T13:33:55;29.83;;;6.43;;
54271;SDS011;40184;53.362;5.216;2023-03-24T13:39:11;31.63;;;6.32;;
54271;SDS011;40184;53.362;5.216;2023-03-24T13:41:40;32.40;;;7.10;;
54271;SDS011;40184;53.362;5.216;2023-03-24T13:44:16;38.58;;;7.25;;
54271;SDS011;40184;53.362;5.216;2023-03-24T13:46:47;29.15;;;6.68;;
54271;SDS011;40184;53.362;5.216;2023-03-24T13:49:29;42.42;;;8.02;;
54271;SDS011;40184;53.362;5.216;2023-03-24T13:51:56;23.70;;;6.75;;
54271;SDS011;40184;53.362;5.216;2023-03-24T13:54:25;31.73;;;6.82;;
54271;SDS011;40184;53.362;5.216;2023-03-24T13:56:53;31.95;;;7.20;;
54271;SDS011;40184;53.362;5.216;2023-03-24T14:04:46;38.47;;;6.85;;
54271;SDS011;40184;53.362;5.216;2023-03-24T14:17:54;41.03;;;8.15;;
54271;SDS011;40184;53.362;5.216;2023-03-24T14:20:38;35.67;;;7.68;;
54271;SDS011;40184;53.362;5.216;2023-03-24T14:23:41;33.70;;;7.53;;
54271;SDS011;40184;53.362;5.216;2023-03-24T14:28:45;27.60;;;7.68;;
54271;SDS011;40184;53.362;5.216;2023-03-24T14:33:55;33.40;;;6.80;;
54271;SDS011;40184;53.362;5.216;2023-03-24T14:36:30;30.77;;;6.50;;
54271;SDS011;40184;53.362;5.216;2023-03-24T14:39:23;34.47;;;6.57;;
54271;SDS011;40184;53.362;5.216;2023-03-24T14:41:55;29.90;;;6.45;;
54271;SDS011;40184;53.362;5.216;2023-03-24T14:47:17;35.75;;;6.90;;
54271;SDS011;40184;53.362;5.216;2023-03-24T14:49:45;31.88;;;5.22;;
54271;SDS011;40184;53.362;5.216;2023-03-24T14:52:24;32.20;;;7.32;;
54271;SDS011;40184;53.362;5.216;2023-03-24T14:55:12;31.08;;;6.18;;
54271;SDS011;40184;53.362;5.216;2023-03-24T14:57:47;38.38;;;8.02;;
54271;SDS011;40184;53.362;5.216;2023-03-24T15:06:20;35.33;;;7.25;;
54271;SDS011;40184;53.362;5.216;2023-03-24T15:11:23;41.67;;;8.93;;
54271;SDS011;40184;53.362;5.216;2023-03-24T15:13:57;34.00;;;6.72;;
54271;SDS011;40184;53.362;5.216;2023-03-24T15:16:25;39.97;;;9.63;;
54271;SDS011;40184;53.362;5.216;2023-03-24T15:18:54;45.28;;;8.10;;
54271;SDS011;40184;53.362;5.216;2023-03-24T15:21:23;29.52;;;8.07;;
54271;SDS011;40184;53.362;5.216;2023-03-24T15:23:56;29.30;;;5.75;;
54271;SDS011;40184;53.362;5.216;2023-03-24T15:26:22;35.22;;;6.45;;
54271;SDS011;40184;53.362;5.216;2023-03-24T15:28:53;22.70;;;7.38;;
54271;SDS011;40184;53.362;5.216;2023-03-24T15:31:21;41.10;;;7.60;;
54271;SDS011;40184;53.362;5.216;2023-03-24T15:33:49;25.35;;;6.22;;
54271;SDS011;40184;53.362;5.216;2023-03-24T15:36:20;36.85;;;8.52;;
54271;SDS011;40184;53.362;5.216;2023-03-24T15:38:48;38.70;;;8.40;;
54271;SDS011;40184;53.362;5.216;2023-03-24T15:41:16;35.70;;;7.85;;
54271;SDS011;40184;53.362;5.216;2023-03-24T15:43:46;36.72;;;9.57;;
54271;SDS011;40184;53.362;5.216;2023-03-24T15:48:51;38.17;;;7.95;;
54271;SDS011;40184;53.362;5.216;2023-03-24T15:51:18;42.53;;;8.80;;
54271;SDS011;40184;53.362;5.216;2023-03-24T15:53:46;34.78;;;7.68;;
54271;SDS011;40184;53.362;5.216;2023-03-24T15:56:26;34.60;;;8.93;;
54271;SDS011;40184;53.362;5.216;2023-03-24T15:58:56;43.47;;;8.43;;
54271;SDS011;40184;53.362;5.216;2023-03-24T16:01:34;41.58;;;8.88;;
54271;SDS011;40184;53.362;5.216;2023-03-24T16:04:06;51.03;;;8.63;;
54271;SDS011;40184;53.362;5.216;2023-03-24T16:06:36;39.63;;;8.40;;
54271;SDS011;40184;53.362;5.216;2023-03-24T16:09:07;39.65;;;7.90;;
54271;SDS011;40184;53.362;5.216;2023-03-24T16:11:38;49.60;;;9.02;;
54271;SDS011;40184;53.362;5.216;2023-03-24T16:14:24;41.47;;;10.77;;
54271;SDS011;40184;53.362;5.216;2023-03-24T16:16:52;38.70;;;7.97;;
54271;SDS011;40184;53.362;5.216;2023-03-24T16:19:19;52.47;;;10.68;;
54271;SDS011;40184;53.362;5.216;2023-03-24T16:21:45;46.35;;;9.48;;
54271;SDS011;40184;53.362;5.216;2023-03-24T16:24:10;37.58;;;7.65;;
54271;SDS011;40184;53.362;5.216;2023-03-24T16:26:36;48.60;;;8.88;;
54271;SDS011;40184;53.362;5.216;2023-03-24T16:29:12;53.47;;;10.68;;
54271;SDS011;40184;53.362;5.216;2023-03-24T16:31:39;35.90;;;8.07;;
54271;SDS011;40184;53.362;5.216;2023-03-24T16:34:05;49.58;;;9.45;;
54271;SDS011;40184;53.362;5.216;2023-03-24T16:36:30;51.70;;;10.32;;
54271;SDS011;40184;53.362;5.216;2023-03-24T16:38:58;44.35;;;9.27;;
54271;SDS011;40184;53.362;5.216;2023-03-24T16:41:25;43.00;;;8.68;;
54271;SDS011;40184;53.362;5.216;2023-03-24T16:43:51;51.55;;;9.98;;
54271;SDS011;40184;53.362;5.216;2023-03-24T16:48:56;51.10;;;10.07;;
54271;SDS011;40184;53.362;5.216;2023-03-24T16:51:22;50.95;;;11.15;;
54271;SDS011;40184;53.362;5.216;2023-03-24T16:53:48;50.08;;;10.45;;
54271;SDS011;40184;53.362;5.216;2023-03-24T16:56:18;42.83;;;9.35;;
54271;SDS011;40184;53.362;5.216;2023-03-24T16:58:45;39.65;;;9.00;;
54271;SDS011;40184;53.362;5.216;2023-03-24T17:01:17;53.22;;;8.50;;
54271;SDS011;40184;53.362;5.216;2023-03-24T17:03:53;41.78;;;9.85;;
54271;SDS011;40184;53.362;5.216;2023-03-24T17:06:20;41.97;;;9.85;;
54271;SDS011;40184;53.362;5.216;2023-03-24T17:08:46;49.20;;;9.63;;
54271;SDS011;40184;53.362;5.216;2023-03-24T17:11:12;57.20;;;12.48;;
54271;SDS011;40184;53.362;5.216;2023-03-24T17:13:44;50.25;;;8.35;;
54271;SDS011;40184;53.362;5.216;2023-03-24T17:16:10;40.42;;;9.75;;
54271;SDS011;40184;53.362;5.216;2023-03-24T17:18:36;52.97;;;11.23;;
54271;SDS011;40184;53.362;5.216;2023-03-24T17:21:14;47.88;;;10.13;;
54271;SDS011;40184;53.362;5.216;2023-03-24T17:23:41;47.92;;;9.15;;
54271;SDS011;40184;53.362;5.216;2023-03-24T17:26:10;47.97;;;9.65;;
54271;SDS011;40184;53.362;5.216;2023-03-24T17:28:36;43.92;;;9.77;;
54271;SDS011;40184;53.362;5.216;2023-03-24T17:31:02;49.92;;;10.63;;
54271;SDS011;40184;53.362;5.216;2023-03-24T17:33:28;46.03;;;10.05;;
54271;SDS011;40184;53.362;5.216;2023-03-24T17:35:54;49.72;;;9.40;;
54271;SDS011;40184;53.362;5.216;2023-03-24T17:38:20;45.58;;;9.38;;
54271;SDS011;40184;53.362;5.216;2023-03-24T17:40:46;51.05;;;9.38;;